sensor_id;sensor_type;location;lat;lon;timestamp;P1;durP1;ratioP1;P2;durP2;ratioP2
68438;SDS011;55421;51.600;5.718;2023-01-04T00:01:13;6.70;;;1.30;;
68438;SDS011;55421;51.600;5.718;2023-01-04T00:03:41;5.80;;;2.10;;
68438;SDS011;55421;51.600;5.718;2023-01-04T00:06:10;6.50;;;1.70;;
68438;SDS011;55421;51.600;5.718;2023-01-04T00:11:09;5.00;;;1.60;;
68438;SDS011;55421;51.600;5.718;2023-01-04T00:13:38;7.30;;;1.80;;
68438;SDS011;55421;51.600;5.718;2023-01-04T00:16:08;4.70;;;1.50;;
68438;SDS011;55421;51.600;5.718;2023-01-04T00:18:37;4.30;;;1.60;;
68438;SDS011;55421;51.600;5.718;2023-01-04T00:21:11;6.60;;;1.60;;
68438;SDS011;55421;51.600;5.718;2023-01-04T00:23:50;5.40;;;1.70;;
68438;SDS011;55421;51.600;5.718;2023-01-04T00:26:20;4.80;;;1.40;;
68438;SDS011;55421;51.600;5.718;2023-01-04T00:31:23;8.80;;;2.10;;
68438;SDS011;55421;51.600;5.718;2023-01-04T00:33:55;4.20;;;1.50;;
68438;SDS011;55421;51.600;5.718;2023-01-04T00:36:23;4.60;;;1.60;;
68438;SDS011;55421;51.600;5.718;2023-01-04T00:38:50;3.20;;;1.50;;
68438;SDS011;55421;51.600;5.718;2023-01-04T00:41:37;4.30;;;1.70;;
68438;SDS011;55421;51.600;5.718;2023-01-04T00:44:15;4.00;;;1.50;;
68438;SDS011;55421;51.600;5.718;2023-01-04T00:46:43;4.30;;;1.60;;
68438;SDS011;55421;51.600;5.718;2023-01-04T00:49:10;2.60;;;1.50;;
68438;SDS011;55421;51.600;5.718;2023-01-04T00:51:39;5.20;;;1.60;;
68438;SDS011;55421;51.600;5.718;2023-01-04T00:54:11;4.20;;;1.30;;
68438;SDS011;55421;51.600;5.718;2023-01-04T00:56:39;5.00;;;1.50;;
68438;SDS011;55421;51.600;5.718;2023-01-04T00:59:06;4.30;;;1.60;;
68438;SDS011;55421;51.600;5.718;2023-01-04T01:01:33;3.70;;;1.70;;
68438;SDS011;55421;51.600;5.718;2023-01-04T01:04:02;5.40;;;1.70;;
68438;SDS011;55421;51.600;5.718;2023-01-04T01:06:31;5.20;;;1.70;;
68438;SDS011;55421;51.600;5.718;2023-01-04T01:08:59;3.10;;;1.70;;
68438;SDS011;55421;51.600;5.718;2023-01-04T01:11:27;5.40;;;1.70;;
68438;SDS011;55421;51.600;5.718;2023-01-04T01:13:55;3.70;;;1.60;;
68438;SDS011;55421;51.600;5.718;2023-01-04T01:16:24;3.20;;;1.30;;
68438;SDS011;55421;51.600;5.718;2023-01-04T01:18:52;2.50;;;1.40;;
68438;SDS011;55421;51.600;5.718;2023-01-04T01:21:22;4.50;;;1.10;;
68438;SDS011;55421;51.600;5.718;2023-01-04T01:23:50;4.50;;;1.60;;
68438;SDS011;55421;51.600;5.718;2023-01-04T01:26:19;3.40;;;1.20;;
68438;SDS011;55421;51.600;5.718;2023-01-04T01:28:47;3.80;;;1.30;;
68438;SDS011;55421;51.600;5.718;2023-01-04T01:31:14;4.30;;;1.80;;
68438;SDS011;55421;51.600;5.718;2023-01-04T01:33:47;3.30;;;1.20;;
68438;SDS011;55421;51.600;5.718;2023-01-04T01:36:16;3.70;;;1.40;;
68438;SDS011;55421;51.600;5.718;2023-01-04T01:38:44;4.20;;;1.30;;
68438;SDS011;55421;51.600;5.718;2023-01-04T01:41:26;5.60;;;1.40;;
68438;SDS011;55421;51.600;5.718;2023-01-04T01:43:56;2.90;;;1.10;;
68438;SDS011;55421;51.600;5.718;2023-01-04T01:46:42;0.90;;;0.70;;
68438;SDS011;55421;51.600;5.718;2023-01-04T01:49:24;2.70;;;1.20;;
68438;SDS011;55421;51.600;5.718;2023-01-04T01:51:53;1.30;;;0.80;;
68438;SDS011;55421;51.600;5.718;2023-01-04T01:54:29;2.80;;;0.90;;
68438;SDS011;55421;51.600;5.718;2023-01-04T01:57:06;1.20;;;1.00;;
68438;SDS011;55421;51.600;5.718;2023-01-04T01:59:39;1.70;;;0.90;;
68438;SDS011;55421;51.600;5.718;2023-01-04T02:02:10;3.60;;;1.10;;
68438;SDS011;55421;51.600;5.718;2023-01-04T02:04:40;0.80;;;0.80;;
68438;SDS011;55421;51.600;5.718;2023-01-04T02:07:10;1.40;;;1.10;;
68438;SDS011;55421;51.600;5.718;2023-01-04T02:09:41;2.20;;;1.10;;
68438;SDS011;55421;51.600;5.718;2023-01-04T02:12:10;3.00;;;1.60;;
68438;SDS011;55421;51.600;5.718;2023-01-04T02:14:39;2.50;;;1.00;;
68438;SDS011;55421;51.600;5.718;2023-01-04T02:35:13;1.40;;;1.10;;
68438;SDS011;55421;51.600;5.718;2023-01-04T02:38:03;2.40;;;1.20;;
68438;SDS011;55421;51.600;5.718;2023-01-04T02:40:57;1.80;;;1.10;;
68438;SDS011;55421;51.600;5.718;2023-01-04T02:43:37;4.10;;;1.20;;
68438;SDS011;55421;51.600;5.718;2023-01-04T02:46:34;1.00;;;0.90;;
68438;SDS011;55421;51.600;5.718;2023-01-04T02:49:05;2.50;;;1.00;;
68438;SDS011;55421;51.600;5.718;2023-01-04T02:51:57;2.80;;;1.30;;
68438;SDS011;55421;51.600;5.718;2023-01-04T02:54:27;1.20;;;0.80;;
68438;SDS011;55421;51.600;5.718;2023-01-04T03:00:10;1.30;;;1.10;;
68438;SDS011;55421;51.600;5.718;2023-01-04T03:02:57;2.50;;;1.40;;
68438;SDS011;55421;51.600;5.718;2023-01-04T03:11:44;1.00;;;0.80;;
68438;SDS011;55421;51.600;5.718;2023-01-04T03:14:41;1.30;;;1.20;;
68438;SDS011;55421;51.600;5.718;2023-01-04T03:17:13;1.50;;;1.20;;
68438;SDS011;55421;51.600;5.718;2023-01-04T03:19:43;1.10;;;0.90;;
68438;SDS011;55421;51.600;5.718;2023-01-04T03:22:31;1.00;;;1.00;;
68438;SDS011;55421;51.600;5.718;2023-01-04T03:25:24;1.00;;;0.90;;
68438;SDS011;55421;51.600;5.718;2023-01-04T03:28:14;1.40;;;1.00;;
68438;SDS011;55421;51.600;5.718;2023-01-04T03:31:33;1.10;;;1.00;;
68438;SDS011;55421;51.600;5.718;2023-01-04T03:34:25;1.10;;;1.10;;
68438;SDS011;55421;51.600;5.718;2023-01-04T03:37:23;0.80;;;0.80;;
68438;SDS011;55421;51.600;5.718;2023-01-04T03:43:18;0.90;;;0.90;;
68438;SDS011;55421;51.600;5.718;2023-01-04T03:46:18;1.40;;;1.00;;
68438;SDS011;55421;51.600;5.718;2023-01-04T03:49:17;1.00;;;0.90;;
68438;SDS011;55421;51.600;5.718;2023-01-04T03:51:56;1.10;;;1.10;;
68438;SDS011;55421;51.600;5.718;2023-01-04T03:54:35;0.90;;;0.90;;
68438;SDS011;55421;51.600;5.718;2023-01-04T03:57:06;1.90;;;1.30;;
68438;SDS011;55421;51.600;5.718;2023-01-04T03:59:40;0.90;;;0.90;;
68438;SDS011;55421;51.600;5.718;2023-01-04T04:02:12;2.10;;;1.00;;
68438;SDS011;55421;51.600;5.718;2023-01-04T04:04:40;2.10;;;1.40;;
68438;SDS011;55421;51.600;5.718;2023-01-04T04:07:26;1.60;;;1.50;;
68438;SDS011;55421;51.600;5.718;2023-01-04T04:10:12;2.40;;;1.20;;
68438;SDS011;55421;51.600;5.718;2023-01-04T04:12:38;1.90;;;1.30;;
68438;SDS011;55421;51.600;5.718;2023-01-04T04:15:05;1.20;;;1.10;;
68438;SDS011;55421;51.600;5.718;2023-01-04T04:17:32;1.40;;;1.30;;
68438;SDS011;55421;51.600;5.718;2023-01-04T04:19:59;1.00;;;1.00;;
68438;SDS011;55421;51.600;5.718;2023-01-04T04:22:25;1.10;;;1.10;;
68438;SDS011;55421;51.600;5.718;2023-01-04T04:24:52;1.10;;;1.00;;
68438;SDS011;55421;51.600;5.718;2023-01-04T04:27:18;1.60;;;1.50;;
68438;SDS011;55421;51.600;5.718;2023-01-04T04:29:45;1.50;;;1.40;;
68438;SDS011;55421;51.600;5.718;2023-01-04T04:32:11;1.40;;;1.30;;
68438;SDS011;55421;51.600;5.718;2023-01-04T04:34:38;1.20;;;1.10;;
68438;SDS011;55421;51.600;5.718;2023-01-04T04:37:07;1.20;;;1.20;;
68438;SDS011;55421;51.600;5.718;2023-01-04T04:39:34;1.20;;;1.10;;
68438;SDS011;55421;51.600;5.718;2023-01-04T04:42:01;1.30;;;1.10;;
68438;SDS011;55421;51.600;5.718;2023-01-04T04:44:27;0.90;;;0.80;;
68438;SDS011;55421;51.600;5.718;2023-01-04T04:46:54;1.10;;;1.10;;
68438;SDS011;55421;51.600;5.718;2023-01-04T04:49:20;1.50;;;1.40;;
68438;SDS011;55421;51.600;5.718;2023-01-04T04:51:47;1.20;;;1.20;;
68438;SDS011;55421;51.600;5.718;2023-01-04T04:54:15;2.10;;;1.50;;
68438;SDS011;55421;51.600;5.718;2023-01-04T04:56:45;1.90;;;1.50;;
68438;SDS011;55421;51.600;5.718;2023-01-04T04:59:13;2.50;;;1.50;;
68438;SDS011;55421;51.600;5.718;2023-01-04T05:01:41;1.60;;;1.10;;
68438;SDS011;55421;51.600;5.718;2023-01-04T05:04:07;2.80;;;1.40;;
68438;SDS011;55421;51.600;5.718;2023-01-04T05:06:34;2.30;;;1.90;;
68438;SDS011;55421;51.600;5.718;2023-01-04T05:09:01;2.20;;;1.30;;
68438;SDS011;55421;51.600;5.718;2023-01-04T05:11:28;1.90;;;1.60;;
68438;SDS011;55421;51.600;5.718;2023-01-04T05:14:13;1.60;;;1.50;;
68438;SDS011;55421;51.600;5.718;2023-01-04T05:16:39;4.50;;;1.80;;
68438;SDS011;55421;51.600;5.718;2023-01-04T05:19:06;1.80;;;1.70;;
68438;SDS011;55421;51.600;5.718;2023-01-04T05:21:32;2.60;;;1.80;;
68438;SDS011;55421;51.600;5.718;2023-01-04T05:23:59;2.10;;;1.80;;
68438;SDS011;55421;51.600;5.718;2023-01-04T05:26:26;2.40;;;1.50;;
68438;SDS011;55421;51.600;5.718;2023-01-04T05:28:52;2.10;;;1.70;;
68438;SDS011;55421;51.600;5.718;2023-01-04T05:31:19;3.50;;;1.90;;
68438;SDS011;55421;51.600;5.718;2023-01-04T05:33:45;1.90;;;1.80;;
68438;SDS011;55421;51.600;5.718;2023-01-04T05:36:12;2.00;;;1.90;;
68438;SDS011;55421;51.600;5.718;2023-01-04T05:38:38;6.20;;;2.00;;
68438;SDS011;55421;51.600;5.718;2023-01-04T05:41:05;3.10;;;1.90;;
68438;SDS011;55421;51.600;5.718;2023-01-04T05:43:51;2.30;;;2.00;;
68438;SDS011;55421;51.600;5.718;2023-01-04T05:46:18;2.90;;;1.90;;
68438;SDS011;55421;51.600;5.718;2023-01-04T05:48:44;2.00;;;1.40;;
68438;SDS011;55421;51.600;5.718;2023-01-04T05:51:11;6.20;;;3.00;;
68438;SDS011;55421;51.600;5.718;2023-01-04T05:53:38;1.90;;;1.60;;
68438;SDS011;55421;51.600;5.718;2023-01-04T05:56:05;2.60;;;2.30;;
68438;SDS011;55421;51.600;5.718;2023-01-04T05:58:32;3.40;;;1.90;;
68438;SDS011;55421;51.600;5.718;2023-01-04T06:00:58;2.20;;;2.00;;
68438;SDS011;55421;51.600;5.718;2023-01-04T06:03:26;2.50;;;1.80;;
68438;SDS011;55421;51.600;5.718;2023-01-04T06:05:53;4.30;;;1.60;;
68438;SDS011;55421;51.600;5.718;2023-01-04T06:08:19;2.20;;;1.40;;
68438;SDS011;55421;51.600;5.718;2023-01-04T06:10:52;3.10;;;2.00;;
68438;SDS011;55421;51.600;5.718;2023-01-04T06:13:19;1.40;;;1.30;;
68438;SDS011;55421;51.600;5.718;2023-01-04T06:15:46;2.70;;;2.10;;
68438;SDS011;55421;51.600;5.718;2023-01-04T06:18:12;2.00;;;1.80;;
68438;SDS011;55421;51.600;5.718;2023-01-04T06:20:39;3.00;;;1.60;;
68438;SDS011;55421;51.600;5.718;2023-01-04T06:23:05;2.60;;;1.70;;
68438;SDS011;55421;51.600;5.718;2023-01-04T06:25:32;1.90;;;1.30;;
68438;SDS011;55421;51.600;5.718;2023-01-04T06:27:58;1.80;;;1.70;;
68438;SDS011;55421;51.600;5.718;2023-01-04T06:30:25;4.90;;;2.10;;
68438;SDS011;55421;51.600;5.718;2023-01-04T06:32:51;2.00;;;1.80;;
68438;SDS011;55421;51.600;5.718;2023-01-04T06:35:18;5.00;;;2.00;;
68438;SDS011;55421;51.600;5.718;2023-01-04T06:37:44;2.90;;;1.50;;
68438;SDS011;55421;51.600;5.718;2023-01-04T06:40:11;3.60;;;1.90;;
68438;SDS011;55421;51.600;5.718;2023-01-04T06:42:37;2.50;;;1.40;;
68438;SDS011;55421;51.600;5.718;2023-01-04T06:45:10;1.20;;;1.10;;
68438;SDS011;55421;51.600;5.718;2023-01-04T06:47:39;2.60;;;1.20;;
68438;SDS011;55421;51.600;5.718;2023-01-04T06:50:06;1.70;;;1.40;;
68438;SDS011;55421;51.600;5.718;2023-01-04T06:52:34;2.70;;;1.40;;
68438;SDS011;55421;51.600;5.718;2023-01-04T06:55:01;1.40;;;1.30;;
68438;SDS011;55421;51.600;5.718;2023-01-04T06:57:28;2.50;;;1.30;;
68438;SDS011;55421;51.600;5.718;2023-01-04T06:59:56;1.60;;;1.50;;
68438;SDS011;55421;51.600;5.718;2023-01-04T07:02:22;2.20;;;1.50;;
68438;SDS011;55421;51.600;5.718;2023-01-04T07:04:49;1.60;;;1.50;;
68438;SDS011;55421;51.600;5.718;2023-01-04T07:07:15;2.60;;;1.70;;
68438;SDS011;55421;51.600;5.718;2023-01-04T07:09:42;1.80;;;1.40;;
68438;SDS011;55421;51.600;5.718;2023-01-04T07:12:08;2.50;;;1.50;;
68438;SDS011;55421;51.600;5.718;2023-01-04T07:14:35;2.30;;;1.60;;
68438;SDS011;55421;51.600;5.718;2023-01-04T07:17:02;2.30;;;1.30;;
68438;SDS011;55421;51.600;5.718;2023-01-04T07:19:28;1.90;;;1.70;;
68438;SDS011;55421;51.600;5.718;2023-01-04T07:21:55;1.10;;;1.10;;
68438;SDS011;55421;51.600;5.718;2023-01-04T07:24:24;2.00;;;1.20;;
68438;SDS011;55421;51.600;5.718;2023-01-04T07:26:51;2.40;;;0.90;;
68438;SDS011;55421;51.600;5.718;2023-01-04T07:29:18;1.20;;;1.00;;
68438;SDS011;55421;51.600;5.718;2023-01-04T07:31:46;1.20;;;1.10;;
68438;SDS011;55421;51.600;5.718;2023-01-04T07:34:16;0.80;;;0.80;;
68438;SDS011;55421;51.600;5.718;2023-01-04T07:36:44;1.30;;;1.20;;
68438;SDS011;55421;51.600;5.718;2023-01-04T07:39:12;1.80;;;1.20;;
68438;SDS011;55421;51.600;5.718;2023-01-04T07:41:40;0.90;;;0.90;;
68438;SDS011;55421;51.600;5.718;2023-01-04T07:44:08;1.00;;;0.90;;
68438;SDS011;55421;51.600;5.718;2023-01-04T07:46:37;1.30;;;0.80;;
68438;SDS011;55421;51.600;5.718;2023-01-04T07:49:04;2.30;;;0.70;;
68438;SDS011;55421;51.600;5.718;2023-01-04T07:51:33;1.10;;;0.80;;
68438;SDS011;55421;51.600;5.718;2023-01-04T07:54:00;1.30;;;1.10;;
68438;SDS011;55421;51.600;5.718;2023-01-04T07:56:26;1.90;;;0.80;;
68438;SDS011;55421;51.600;5.718;2023-01-04T07:58:53;1.20;;;0.70;;
68438;SDS011;55421;51.600;5.718;2023-01-04T08:01:23;1.60;;;0.90;;
68438;SDS011;55421;51.600;5.718;2023-01-04T08:03:52;1.40;;;0.90;;
68438;SDS011;55421;51.600;5.718;2023-01-04T08:06:20;1.90;;;0.90;;
68438;SDS011;55421;51.600;5.718;2023-01-04T08:08:47;2.60;;;1.00;;
68438;SDS011;55421;51.600;5.718;2023-01-04T08:11:16;3.70;;;1.00;;
68438;SDS011;55421;51.600;5.718;2023-01-04T08:13:45;1.20;;;0.70;;
68438;SDS011;55421;51.600;5.718;2023-01-04T08:16:25;3.30;;;0.70;;
68438;SDS011;55421;51.600;5.718;2023-01-04T08:18:54;1.10;;;0.70;;
68438;SDS011;55421;51.600;5.718;2023-01-04T08:21:21;0.80;;;0.70;;
68438;SDS011;55421;51.600;5.718;2023-01-04T08:23:49;2.10;;;0.90;;
68438;SDS011;55421;51.600;5.718;2023-01-04T08:26:17;1.90;;;0.70;;
68438;SDS011;55421;51.600;5.718;2023-01-04T08:28:44;2.40;;;0.60;;
68438;SDS011;55421;51.600;5.718;2023-01-04T08:31:20;0.90;;;0.60;;
68438;SDS011;55421;51.600;5.718;2023-01-04T08:33:49;2.70;;;0.90;;
68438;SDS011;55421;51.600;5.718;2023-01-04T08:38:59;0.80;;;0.80;;
68438;SDS011;55421;51.600;5.718;2023-01-04T08:41:28;0.60;;;0.60;;
68438;SDS011;55421;51.600;5.718;2023-01-04T08:43:55;2.90;;;0.60;;
68438;SDS011;55421;51.600;5.718;2023-01-04T08:46:22;1.80;;;0.70;;
68438;SDS011;55421;51.600;5.718;2023-01-04T08:48:50;3.10;;;0.70;;
68438;SDS011;55421;51.600;5.718;2023-01-04T08:51:17;1.90;;;0.90;;
68438;SDS011;55421;51.600;5.718;2023-01-04T08:53:44;2.70;;;0.80;;
68438;SDS011;55421;51.600;5.718;2023-01-04T08:56:11;3.30;;;0.60;;
68438;SDS011;55421;51.600;5.718;2023-01-04T08:58:38;2.30;;;0.80;;
68438;SDS011;55421;51.600;5.718;2023-01-04T09:01:09;1.50;;;0.70;;
68438;SDS011;55421;51.600;5.718;2023-01-04T09:03:37;1.90;;;0.70;;
68438;SDS011;55421;51.600;5.718;2023-01-04T09:06:09;4.00;;;0.70;;
68438;SDS011;55421;51.600;5.718;2023-01-04T09:08:39;1.80;;;0.90;;
68438;SDS011;55421;51.600;5.718;2023-01-04T09:13:40;1.90;;;0.70;;
68438;SDS011;55421;51.600;5.718;2023-01-04T09:16:09;5.50;;;1.10;;
68438;SDS011;55421;51.600;5.718;2023-01-04T09:18:38;1.80;;;0.70;;
68438;SDS011;55421;51.600;5.718;2023-01-04T09:21:13;1.50;;;1.30;;
68438;SDS011;55421;51.600;5.718;2023-01-04T09:23:42;3.20;;;0.70;;
68438;SDS011;55421;51.600;5.718;2023-01-04T09:26:13;5.70;;;0.80;;
68438;SDS011;55421;51.600;5.718;2023-01-04T09:28:43;0.60;;;0.50;;
68438;SDS011;55421;51.600;5.718;2023-01-04T09:31:13;3.10;;;0.70;;
68438;SDS011;55421;51.600;5.718;2023-01-04T09:33:42;3.30;;;0.60;;
68438;SDS011;55421;51.600;5.718;2023-01-04T09:36:12;1.60;;;0.60;;
68438;SDS011;55421;51.600;5.718;2023-01-04T09:38:41;2.80;;;0.60;;
68438;SDS011;55421;51.600;5.718;2023-01-04T09:43:46;0.90;;;0.50;;
68438;SDS011;55421;51.600;5.718;2023-01-04T09:49:40;1.00;;;0.60;;
68438;SDS011;55421;51.600;5.718;2023-01-04T09:52:23;1.60;;;0.60;;
68438;SDS011;55421;51.600;5.718;2023-01-04T09:55:08;0.40;;;0.40;;
68438;SDS011;55421;51.600;5.718;2023-01-04T09:58:04;0.80;;;0.50;;
68438;SDS011;55421;51.600;5.718;2023-01-04T10:00:48;2.30;;;0.60;;
68438;SDS011;55421;51.600;5.718;2023-01-04T10:03:28;1.90;;;0.80;;
68438;SDS011;55421;51.600;5.718;2023-01-04T10:05:58;3.20;;;1.20;;
68438;SDS011;55421;51.600;5.718;2023-01-04T10:08:26;3.10;;;0.60;;
68438;SDS011;55421;51.600;5.718;2023-01-04T10:22:30;1.80;;;0.90;;
68438;SDS011;55421;51.600;5.718;2023-01-04T10:25:23;2.20;;;0.80;;
68438;SDS011;55421;51.600;5.718;2023-01-04T10:30:53;1.10;;;0.80;;
68438;SDS011;55421;51.600;5.718;2023-01-04T10:36:42;1.50;;;0.70;;
68438;SDS011;55421;51.600;5.718;2023-01-04T10:39:17;1.20;;;0.90;;
68438;SDS011;55421;51.600;5.718;2023-01-04T10:41:54;1.70;;;0.60;;
68438;SDS011;55421;51.600;5.718;2023-01-04T10:44:31;2.00;;;1.10;;
68438;SDS011;55421;51.600;5.718;2023-01-04T10:47:12;1.10;;;0.70;;
68438;SDS011;55421;51.600;5.718;2023-01-04T10:49:55;3.30;;;0.90;;
68438;SDS011;55421;51.600;5.718;2023-01-04T10:55:11;1.10;;;0.80;;
68438;SDS011;55421;51.600;5.718;2023-01-04T10:57:47;1.00;;;0.60;;
68438;SDS011;55421;51.600;5.718;2023-01-04T11:00:25;2.60;;;0.80;;
68438;SDS011;55421;51.600;5.718;2023-01-04T11:03:09;1.40;;;0.80;;
68438;SDS011;55421;51.600;5.718;2023-01-04T11:06:26;0.50;;;0.50;;
68438;SDS011;55421;51.600;5.718;2023-01-04T11:09:07;1.90;;;1.20;;
68438;SDS011;55421;51.600;5.718;2023-01-04T11:11:45;2.00;;;0.70;;
68438;SDS011;55421;51.600;5.718;2023-01-04T11:14:14;2.50;;;0.80;;
68438;SDS011;55421;51.600;5.718;2023-01-04T11:16:45;0.60;;;0.60;;
68438;SDS011;55421;51.600;5.718;2023-01-04T11:19:14;0.70;;;0.70;;
68438;SDS011;55421;51.600;5.718;2023-01-04T11:21:48;1.00;;;0.80;;
68438;SDS011;55421;51.600;5.718;2023-01-04T11:24:16;2.20;;;1.30;;
68438;SDS011;55421;51.600;5.718;2023-01-04T11:26:44;2.10;;;0.60;;
68438;SDS011;55421;51.600;5.718;2023-01-04T11:32:34;1.40;;;0.60;;
68438;SDS011;55421;51.600;5.718;2023-01-04T11:35:04;1.40;;;0.50;;
68438;SDS011;55421;51.600;5.718;2023-01-04T11:37:34;1.00;;;0.60;;
68438;SDS011;55421;51.600;5.718;2023-01-04T11:40:24;1.00;;;0.70;;
68438;SDS011;55421;51.600;5.718;2023-01-04T11:43:11;1.40;;;0.50;;
68438;SDS011;55421;51.600;5.718;2023-01-04T11:46:05;1.00;;;0.70;;
68438;SDS011;55421;51.600;5.718;2023-01-04T11:54:00;0.30;;;0.30;;
68438;SDS011;55421;51.600;5.718;2023-01-04T11:56:34;0.70;;;0.30;;
68438;SDS011;55421;51.600;5.718;2023-01-04T11:59:37;1.50;;;0.60;;
68438;SDS011;55421;51.600;5.718;2023-01-04T12:02:23;0.70;;;0.30;;
68438;SDS011;55421;51.600;5.718;2023-01-04T12:04:52;0.40;;;0.40;;
68438;SDS011;55421;51.600;5.718;2023-01-04T12:07:32;0.40;;;0.40;;
68438;SDS011;55421;51.600;5.718;2023-01-04T12:10:14;2.00;;;0.40;;
68438;SDS011;55421;51.600;5.718;2023-01-04T12:12:49;1.90;;;0.70;;
68438;SDS011;55421;51.600;5.718;2023-01-04T12:15:30;0.50;;;0.40;;
68438;SDS011;55421;51.600;5.718;2023-01-04T12:18:09;1.80;;;0.50;;
68438;SDS011;55421;51.600;5.718;2023-01-04T12:20:40;0.90;;;0.50;;
68438;SDS011;55421;51.600;5.718;2023-01-04T12:23:09;0.50;;;0.50;;
68438;SDS011;55421;51.600;5.718;2023-01-04T12:25:40;0.80;;;0.40;;
68438;SDS011;55421;51.600;5.718;2023-01-04T12:33:45;0.70;;;0.30;;
68438;SDS011;55421;51.600;5.718;2023-01-04T12:36:12;1.20;;;0.30;;
68438;SDS011;55421;51.600;5.718;2023-01-04T12:41:21;0.50;;;0.50;;
68438;SDS011;55421;51.600;5.718;2023-01-04T12:44:02;0.30;;;0.30;;
68438;SDS011;55421;51.600;5.718;2023-01-04T12:46:52;1.50;;;0.40;;
68438;SDS011;55421;51.600;5.718;2023-01-04T12:49:48;0.50;;;0.50;;
68438;SDS011;55421;51.600;5.718;2023-01-04T12:54:55;0.50;;;0.50;;
68438;SDS011;55421;51.600;5.718;2023-01-04T12:57:30;0.30;;;0.30;;
68438;SDS011;55421;51.600;5.718;2023-01-04T13:02:43;0.40;;;0.40;;
68438;SDS011;55421;51.600;5.718;2023-01-04T13:07:47;0.40;;;0.40;;
68438;SDS011;55421;51.600;5.718;2023-01-04T13:10:26;0.40;;;0.40;;
68438;SDS011;55421;51.600;5.718;2023-01-04T13:16:15;0.90;;;0.50;;
68438;SDS011;55421;51.600;5.718;2023-01-04T13:21:43;0.30;;;0.30;;
68438;SDS011;55421;51.600;5.718;2023-01-04T13:24:29;0.70;;;0.40;;
68438;SDS011;55421;51.600;5.718;2023-01-04T13:27:05;1.00;;;0.20;;
68438;SDS011;55421;51.600;5.718;2023-01-04T13:29:35;0.30;;;0.30;;
68438;SDS011;55421;51.600;5.718;2023-01-04T13:34:55;0.40;;;0.40;;
68438;SDS011;55421;51.600;5.718;2023-01-04T13:40:26;0.50;;;0.50;;
68438;SDS011;55421;51.600;5.718;2023-01-04T13:46:21;0.50;;;0.50;;
68438;SDS011;55421;51.600;5.718;2023-01-04T13:48:52;1.30;;;0.60;;
68438;SDS011;55421;51.600;5.718;2023-01-04T13:51:26;0.80;;;0.80;;
68438;SDS011;55421;51.600;5.718;2023-01-04T13:53:59;2.20;;;0.90;;
68438;SDS011;55421;51.600;5.718;2023-01-04T13:56:30;2.30;;;1.00;;
68438;SDS011;55421;51.600;5.718;2023-01-04T13:58:58;1.00;;;0.90;;
68438;SDS011;55421;51.600;5.718;2023-01-04T14:01:27;2.30;;;1.00;;
68438;SDS011;55421;51.600;5.718;2023-01-04T14:04:06;1.00;;;1.00;;
68438;SDS011;55421;51.600;5.718;2023-01-04T14:06:40;1.30;;;1.20;;
68438;SDS011;55421;51.600;5.718;2023-01-04T14:30:45;2.70;;;1.20;;
68438;SDS011;55421;51.600;5.718;2023-01-04T14:36:18;1.50;;;1.10;;
68438;SDS011;55421;51.600;5.718;2023-01-04T14:38:53;1.90;;;1.70;;
68438;SDS011;55421;51.600;5.718;2023-01-04T14:41:51;1.70;;;1.00;;
68438;SDS011;55421;51.600;5.718;2023-01-04T14:44:21;1.80;;;1.00;;
68438;SDS011;55421;51.600;5.718;2023-01-04T14:46:56;1.50;;;1.40;;
68438;SDS011;55421;51.600;5.718;2023-01-04T14:49:24;1.50;;;1.40;;
68438;SDS011;55421;51.600;5.718;2023-01-04T14:51:56;1.80;;;1.70;;
68438;SDS011;55421;51.600;5.718;2023-01-04T14:54:26;2.90;;;2.00;;
68438;SDS011;55421;51.600;5.718;2023-01-04T14:56:55;2.00;;;1.40;;
68438;SDS011;55421;51.600;5.718;2023-01-04T14:59:23;1.90;;;1.60;;
68438;SDS011;55421;51.600;5.718;2023-01-04T15:01:52;2.00;;;1.40;;
68438;SDS011;55421;51.600;5.718;2023-01-04T15:04:20;1.50;;;1.40;;
68438;SDS011;55421;51.600;5.718;2023-01-04T15:06:49;1.80;;;1.70;;
68438;SDS011;55421;51.600;5.718;2023-01-04T15:09:24;1.70;;;1.60;;
68438;SDS011;55421;51.600;5.718;2023-01-04T15:11:52;2.50;;;1.60;;
68438;SDS011;55421;51.600;5.718;2023-01-04T15:14:18;3.30;;;1.70;;
68438;SDS011;55421;51.600;5.718;2023-01-04T15:16:45;5.90;;;2.40;;
68438;SDS011;55421;51.600;5.718;2023-01-04T15:19:12;2.80;;;1.90;;
68438;SDS011;55421;51.600;5.718;2023-01-04T15:21:39;3.40;;;1.80;;
68438;SDS011;55421;51.600;5.718;2023-01-04T15:24:06;3.70;;;1.80;;
68438;SDS011;55421;51.600;5.718;2023-01-04T15:26:33;4.30;;;2.30;;
68438;SDS011;55421;51.600;5.718;2023-01-04T15:29:00;3.20;;;1.80;;
68438;SDS011;55421;51.600;5.718;2023-01-04T15:31:26;3.80;;;2.30;;
68438;SDS011;55421;51.600;5.718;2023-01-04T15:33:53;5.40;;;1.90;;
68438;SDS011;55421;51.600;5.718;2023-01-04T15:36:20;4.10;;;2.40;;
68438;SDS011;55421;51.600;5.718;2023-01-04T15:38:46;5.70;;;2.40;;
68438;SDS011;55421;51.600;5.718;2023-01-04T15:41:15;3.80;;;2.20;;
68438;SDS011;55421;51.600;5.718;2023-01-04T15:44:03;7.70;;;2.50;;
68438;SDS011;55421;51.600;5.718;2023-01-04T15:46:29;4.00;;;2.20;;
68438;SDS011;55421;51.600;5.718;2023-01-04T15:48:56;7.00;;;2.20;;
68438;SDS011;55421;51.600;5.718;2023-01-04T15:51:22;6.60;;;2.40;;
68438;SDS011;55421;51.600;5.718;2023-01-04T15:53:51;5.90;;;2.20;;
68438;SDS011;55421;51.600;5.718;2023-01-04T15:56:18;10.50;;;2.30;;
68438;SDS011;55421;51.600;5.718;2023-01-04T15:58:50;6.90;;;2.00;;
68438;SDS011;55421;51.600;5.718;2023-01-04T16:01:18;5.40;;;2.60;;
68438;SDS011;55421;51.600;5.718;2023-01-04T16:03:44;8.20;;;2.60;;
68438;SDS011;55421;51.600;5.718;2023-01-04T16:06:13;9.00;;;2.70;;
68438;SDS011;55421;51.600;5.718;2023-01-04T16:08:42;5.10;;;2.30;;
68438;SDS011;55421;51.600;5.718;2023-01-04T16:11:09;4.20;;;2.20;;
68438;SDS011;55421;51.600;5.718;2023-01-04T16:13:37;6.30;;;2.30;;
68438;SDS011;55421;51.600;5.718;2023-01-04T16:16:05;6.20;;;2.10;;
68438;SDS011;55421;51.600;5.718;2023-01-04T16:18:32;9.10;;;2.10;;
68438;SDS011;55421;51.600;5.718;2023-01-04T16:20:59;8.30;;;2.60;;
68438;SDS011;55421;51.600;5.718;2023-01-04T16:23:26;3.50;;;1.80;;
68438;SDS011;55421;51.600;5.718;2023-01-04T16:26:11;8.40;;;2.40;;
68438;SDS011;55421;51.600;5.718;2023-01-04T16:28:39;6.50;;;2.10;;
68438;SDS011;55421;51.600;5.718;2023-01-04T16:31:07;7.30;;;1.90;;
68438;SDS011;55421;51.600;5.718;2023-01-04T16:33:34;7.00;;;2.40;;
68438;SDS011;55421;51.600;5.718;2023-01-04T16:36:04;6.30;;;2.00;;
68438;SDS011;55421;51.600;5.718;2023-01-04T16:38:38;5.30;;;2.40;;
68438;SDS011;55421;51.600;5.718;2023-01-04T16:41:13;8.00;;;2.50;;
68438;SDS011;55421;51.600;5.718;2023-01-04T16:43:45;6.00;;;2.20;;
68438;SDS011;55421;51.600;5.718;2023-01-04T16:48:53;8.90;;;2.90;;
68438;SDS011;55421;51.600;5.718;2023-01-04T16:51:24;4.90;;;2.30;;
68438;SDS011;55421;51.600;5.718;2023-01-04T16:53:52;7.00;;;2.50;;
68438;SDS011;55421;51.600;5.718;2023-01-04T16:56:21;7.20;;;3.00;;
68438;SDS011;55421;51.600;5.718;2023-01-04T16:58:50;6.80;;;2.70;;
68438;SDS011;55421;51.600;5.718;2023-01-04T17:01:20;9.20;;;3.20;;
68438;SDS011;55421;51.600;5.718;2023-01-04T17:03:49;6.70;;;2.70;;
68438;SDS011;55421;51.600;5.718;2023-01-04T17:06:21;6.50;;;3.00;;
68438;SDS011;55421;51.600;5.718;2023-01-04T17:08:50;4.70;;;2.30;;
68438;SDS011;55421;51.600;5.718;2023-01-04T17:11:21;7.50;;;2.70;;
68438;SDS011;55421;51.600;5.718;2023-01-04T17:13:52;7.80;;;2.30;;
68438;SDS011;55421;51.600;5.718;2023-01-04T17:16:20;8.00;;;2.30;;
68438;SDS011;55421;51.600;5.718;2023-01-04T17:18:49;13.00;;;3.40;;
68438;SDS011;55421;51.600;5.718;2023-01-04T17:21:23;8.40;;;2.20;;
68438;SDS011;55421;51.600;5.718;2023-01-04T17:23:54;13.30;;;2.20;;
68438;SDS011;55421;51.600;5.718;2023-01-04T17:26:24;9.00;;;3.00;;
68438;SDS011;55421;51.600;5.718;2023-01-04T17:28:54;8.10;;;2.30;;
68438;SDS011;55421;51.600;5.718;2023-01-04T17:31:24;9.60;;;2.00;;